createdAt,value
2022-12-29T11:17:27.050Z,65.55
2022-12-29T11:18:26.911Z,65.84
2022-12-29T11:19:26.972Z,66.22
2022-12-29T11:20:26.934Z,66.22
2022-12-29T11:21:26.975Z,66.13
2022-12-29T11:22:27.140Z,66.03
2022-12-29T11:23:27.003Z,66.03
2022-12-29T11:24:26.979Z,65.93
2022-12-29T11:25:26.745Z,66.03
2022-12-29T11:26:35.100Z,66.6
2022-12-29T11:27:27.121Z,66.5
2022-12-29T11:28:27.107Z,65.93
2022-12-29T11:29:27.070Z,66.22
2022-12-29T11:30:27.133Z,66.41
2022-12-29T11:31:26.940Z,65.64
2022-12-29T11:32:31.234Z,65.84
2022-12-29T11:33:27.117Z,66.03
2022-12-29T11:34:27.173Z,66.22
2022-12-29T11:35:27.111Z,66.5
2022-12-29T11:36:27.128Z,66.31
2022-12-29T11:37:27.297Z,66.5
2022-12-29T11:38:27.343Z,66.41
2022-12-29T11:39:27.714Z,66.5
2022-12-29T11:40:27.240Z,66.7
2022-12-29T11:41:27.129Z,67.08
2022-12-29T11:42:27.179Z,67.46
2022-12-29T11:43:27.550Z,66.95
2022-12-29T11:44:27.561Z,67.14
2022-12-29T11:45:27.167Z,66.85
2022-12-29T11:46:27.545Z,67.33
2022-12-29T11:47:27.535Z,67.62
2022-12-29T11:48:27.477Z,67.84
2022-12-29T11:49:27.350Z,67.27
2022-12-29T11:50:27.509Z,66.99
2022-12-29T11:51:28.583Z,66.7
2022-12-29T11:52:27.656Z,66.79
2022-12-29T11:53:27.885Z,67.08
2022-12-29T11:54:27.354Z,66.7
2022-12-29T11:55:27.436Z,67.14
2022-12-29T11:56:27.510Z,67.43
2022-12-29T11:57:27.470Z,67.43
2022-12-29T11:58:27.506Z,67.75
2022-12-29T11:59:27.458Z,67.75
2022-12-29T12:00:27.201Z,67.33
2022-12-29T12:01:27.638Z,67.43
2022-12-29T12:02:27.448Z,67.91
2022-12-29T12:03:27.801Z,67.71
2022-12-29T12:04:27.765Z,67.81
2022-12-29T12:05:27.608Z,68
2022-12-29T12:06:27.588Z,67.43
2022-12-29T12:07:27.497Z,67.62
2022-12-29T12:08:27.351Z,67.91
2022-12-29T12:09:27.531Z,67.18
2022-12-29T12:10:27.303Z,66.5
2022-12-29T12:11:27.584Z,66.41
2022-12-29T12:12:27.363Z,66.22
2022-12-29T12:13:27.609Z,66.03
2022-12-29T12:14:27.651Z,65.74
2022-12-29T12:15:27.613Z,66.13
2022-12-29T12:16:27.824Z,65.84
2022-12-29T12:17:27.445Z,65.84
2022-12-29T12:18:27.734Z,66.03
2022-12-29T12:19:27.702Z,65.84
2022-12-29T12:20:27.456Z,65.93
2022-12-29T12:21:27.721Z,66.41
2022-12-29T12:22:27.686Z,66.13
2022-12-29T12:23:27.460Z,66.54
2022-12-29T12:24:27.464Z,66.35
2022-12-29T12:25:27.990Z,66.25
2022-12-29T12:26:27.891Z,66.06
2022-12-29T12:27:28.161Z,66.06
2022-12-29T12:28:31.755Z,65.68
2022-12-29T12:29:27.911Z,65.48
2022-12-29T12:30:27.947Z,65.87
2022-12-29T12:31:28.030Z,65.87
2022-12-29T12:32:27.958Z,65.68
2022-12-29T12:33:28.541Z,65.3
2022-12-29T12:34:27.994Z,65.97
2022-12-29T12:35:28.042Z,65.87
2022-12-29T12:36:28.217Z,65.01
2022-12-29T12:37:27.966Z,65.11
2022-12-29T12:38:27.661Z,65.58
2022-12-29T12:39:28.094Z,65.2
2022-12-29T12:40:27.811Z,65.11
2022-12-29T12:41:28.017Z,64.91
2022-12-29T12:42:28.098Z,65.77
2022-12-29T12:43:28.132Z,65.77
2022-12-29T12:44:27.983Z,65.68
2022-12-29T12:45:27.736Z,66.06
2022-12-29T12:46:28.194Z,65.55
2022-12-29T12:47:28.083Z,66.31
2022-12-29T12:48:27.847Z,66.5
2022-12-29T12:49:28.096Z,66.7
2022-12-29T12:50:27.977Z,66.5
2022-12-29T12:51:28.160Z,66.99
2022-12-29T12:52:28.012Z,67.18
2022-12-29T12:53:28.194Z,67.05
2022-12-29T12:54:28.240Z,67.75
2022-12-29T12:55:28.244Z,66.85
2022-12-29T12:56:28.167Z,67.33
2022-12-29T12:57:28.220Z,67.81
2022-12-29T12:58:28.038Z,67.62
2022-12-29T12:59:28.001Z,67.71
2022-12-29T13:00:28.250Z,68
2022-12-29T13:01:28.748Z,67.71
2022-12-29T13:02:28.894Z,67.52
2022-12-29T13:03:28.182Z,68
2022-12-29T13:04:28.269Z,67.91
2022-12-29T13:05:29.679Z,67.81
2022-12-29T13:06:28.310Z,68.57
2022-12-29T13:07:28.351Z,68.19
2022-12-29T13:08:28.326Z,68.29
2022-12-29T13:09:28.351Z,68.48
2022-12-29T13:10:28.498Z,67.81
2022-12-29T13:11:28.386Z,66.6
2022-12-29T13:12:28.373Z,65.93
2022-12-29T13:13:28.525Z,66.13
2022-12-29T13:14:28.389Z,65.84
2022-12-29T13:15:28.393Z,65.74
2022-12-29T13:16:28.303Z,66.5
2022-12-29T13:17:28.546Z,66.5
2022-12-29T13:18:28.626Z,66.89
2022-12-29T13:19:28.448Z,66.85
2022-12-29T13:20:28.567Z,67.24
2022-12-29T13:21:28.474Z,67.24
2022-12-29T13:22:28.524Z,66.85
2022-12-29T13:23:28.479Z,66.95
2022-12-29T13:24:28.585Z,67.71
2022-12-29T13:25:28.692Z,67.52
2022-12-29T13:26:28.710Z,67.91
2022-12-29T13:27:37.045Z,68.1
2022-12-29T13:28:28.608Z,69.24
2022-12-29T13:29:28.705Z,68.76
2022-12-29T13:30:28.636Z,69.05
2022-12-29T13:31:28.812Z,69.59
2022-12-29T13:32:28.616Z,70.07
2022-12-29T13:33:28.715Z,70.67
2022-12-29T13:34:28.683Z,70.16
2022-12-29T13:35:28.768Z,70.45
2022-12-29T13:36:28.780Z,69.02
2022-12-29T13:37:29.504Z,69.49
2022-12-29T13:38:28.821Z,69.78
2022-12-29T13:39:28.957Z,69.4
2022-12-29T13:40:28.773Z,70.07
2022-12-29T13:41:28.741Z,70.45
2022-12-29T13:42:29.133Z,70.54
2022-12-29T13:43:28.762Z,70.73
2022-12-29T13:44:31.909Z,70.83
2022-12-29T13:45:28.793Z,71.02
2022-12-29T13:46:28.959Z,71.18
2022-12-29T13:47:28.886Z,71.56
2022-12-29T13:48:29.502Z,71.18
2022-12-29T13:49:29.076Z,71.75
2022-12-29T13:50:29.422Z,71.46
2022-12-29T13:51:30.790Z,71.66
2022-12-29T13:52:28.924Z,71.27
2022-12-29T13:53:28.860Z,71.75
2022-12-29T13:54:28.898Z,72.32
2022-12-29T13:55:29.039Z,72.61
2022-12-29T13:56:28.871Z,72.42
2022-12-29T13:57:30.342Z,72.42
2022-12-29T13:58:29.099Z,72.99
2022-12-29T13:59:29.144Z,72.8
2022-12-29T14:00:28.690Z,73.08
2022-12-29T14:01:29.299Z,73.14
2022-12-29T14:02:29.544Z,73.62
2022-12-29T14:03:33.068Z,73.43
2022-12-29T14:04:29.072Z,73.72
2022-12-29T14:05:28.848Z,73.43
2022-12-29T14:06:29.073Z,73.81
2022-12-29T14:07:28.764Z,74.01
2022-12-29T14:08:29.056Z,73.62
2022-12-29T14:09:35.909Z,74.19
2022-12-29T14:10:29.341Z,74.1
2022-12-29T14:11:29.212Z,73.62
2022-12-29T14:12:30.711Z,73.62
2022-12-29T14:13:30.543Z,73.72
2022-12-29T14:14:29.190Z,74.19
2022-12-29T14:15:29.237Z,74.19
2022-12-29T14:16:29.247Z,74.19
2022-12-29T14:17:29.133Z,74.86
2022-12-29T14:18:29.703Z,74.29
2022-12-29T14:19:29.144Z,74.1
2022-12-29T14:20:29.232Z,74.19
2022-12-29T14:21:29.048Z,74.67
2022-12-29T14:22:35.112Z,74.48
2022-12-29T14:23:28.951Z,74.77
2022-12-29T14:24:28.990Z,74.86
2022-12-29T14:25:29.940Z,74.86
2022-12-29T14:26:29.262Z,74.86
2022-12-29T14:27:29.243Z,74.57
2022-12-29T14:28:29.043Z,74.77
2022-12-29T14:29:29.322Z,75.34
2022-12-29T14:30:29.980Z,75.34
2022-12-29T14:31:30.033Z,75.81
2022-12-29T14:32:29.590Z,75.72
2022-12-29T14:33:29.327Z,76.35
2022-12-29T14:34:30.075Z,76.54
2022-12-29T14:35:29.771Z,77.01
2022-12-29T14:36:29.140Z,76.64
2022-12-29T14:37:29.202Z,77.3
2022-12-29T14:38:29.428Z,77.3
2022-12-29T14:39:29.621Z,77.49
2022-12-29T14:40:29.188Z,77.4
2022-12-29T14:41:29.487Z,77.11
2022-12-29T14:42:30.374Z,77.11
2022-12-29T14:43:29.474Z,77.49
2022-12-29T14:44:29.656Z,77.78
2022-12-29T14:45:29.552Z,77.97
2022-12-29T14:46:29.606Z,77.69
2022-12-29T14:47:29.468Z,78.5
2022-12-29T14:48:29.582Z,78.16
2022-12-29T14:49:29.414Z,78.59
2022-12-29T14:50:29.640Z,78.5
2022-12-29T14:51:29.663Z,77.93
2022-12-29T14:52:29.900Z,78.12
2022-12-29T14:53:29.591Z,78.41
2022-12-29T14:54:29.477Z,78.22
2022-12-29T14:55:29.586Z,78.69
2022-12-29T14:56:29.490Z,78.12
2022-12-29T14:57:29.534Z,78.59
2022-12-29T14:58:29.282Z,79.17
2022-12-29T14:59:30.550Z,79.17
2022-12-29T15:00:29.631Z,79.36
2022-12-29T15:01:29.948Z,79.74
2022-12-29T15:02:30.075Z,79.46
2022-12-29T15:03:29.587Z,79.64
2022-12-29T15:04:29.683Z,79.64
2022-12-29T15:05:29.489Z,79.55
2022-12-29T15:06:29.419Z,79.07
2022-12-29T15:07:29.691Z,79.17
2022-12-29T15:08:29.731Z,79.27
2022-12-29T15:09:29.671Z,78.31
2022-12-29T15:10:29.666Z,78.69
2022-12-29T15:11:29.460Z,78.31
2022-12-29T15:12:29.567Z,79.07
2022-12-29T15:13:29.934Z,78.03
2022-12-29T15:14:29.719Z,78.12
2022-12-29T15:15:29.761Z,78.12
2022-12-29T15:16:29.663Z,78.31
2022-12-29T15:17:29.752Z,77.83
2022-12-29T15:18:29.767Z,77.64
2022-12-29T15:19:31.052Z,77.93
2022-12-29T15:20:30.044Z,78.31
2022-12-29T15:21:29.543Z,78.12
2022-12-29T15:22:29.573Z,78.12
2022-12-29T15:23:29.568Z,77.74
2022-12-29T15:24:29.924Z,78.22
2022-12-29T15:25:29.886Z,77.83
2022-12-29T15:26:30.091Z,77.74
2022-12-29T15:27:30.016Z,77.45
2022-12-29T15:28:29.580Z,77.93
2022-12-29T15:29:29.886Z,78.03
2022-12-29T15:30:29.726Z,78.31
2022-12-29T15:31:33.436Z,78.31
2022-12-29T15:32:30.703Z,77.83
2022-12-29T15:33:30.165Z,78.59
2022-12-29T15:34:30.099Z,79.17
2022-12-29T15:35:29.737Z,79.17
2022-12-29T15:36:29.990Z,79.51
2022-12-29T15:37:29.989Z,79.7
2022-12-29T15:38:40.525Z,79.8
2022-12-29T15:39:30.044Z,79.7
2022-12-29T15:40:30.171Z,80.46
2022-12-29T15:41:29.969Z,81.03
2022-12-29T15:42:29.726Z,81.03
2022-12-29T15:43:31.164Z,81.7
2022-12-29T15:44:30.075Z,81.56
2022-12-29T15:45:30.479Z,81.66
2022-12-29T15:46:30.136Z,80.71
2022-12-29T15:47:30.042Z,80.9
2022-12-29T15:48:30.131Z,81.85
2022-12-29T15:49:34.932Z,81.47
2022-12-29T15:50:30.080Z,81.95
2022-12-29T15:51:30.101Z,82.14
2022-12-29T15:52:30.076Z,82.42
2022-12-29T15:53:31.795Z,82.9
2022-12-29T15:54:30.139Z,82.9
2022-12-29T15:55:30.695Z,82.9
2022-12-29T15:56:30.237Z,82.23
2022-12-29T15:57:30.148Z,83.18
2022-12-29T15:58:30.223Z,83.56
2022-12-29T15:59:30.230Z,83.47
2022-12-29T16:00:30.325Z,83.56
2022-12-29T16:01:30.358Z,83.56
2022-12-29T16:02:30.601Z,83.71
2022-12-29T16:03:30.413Z,83.65
2022-12-29T16:04:30.167Z,84.28
2022-12-29T16:05:30.209Z,84.66
2022-12-29T16:06:30.246Z,84.19
2022-12-29T16:07:32.175Z,85.14
2022-12-29T16:08:30.259Z,84.85
2022-12-29T16:09:30.288Z,85.04
2022-12-29T16:10:30.018Z,85.61
2022-12-29T16:11:30.378Z,85.9
2022-12-29T16:12:30.454Z,85.99
2022-12-29T16:13:33.204Z,85.99
2022-12-29T16:14:30.648Z,86.09
2022-12-29T16:15:30.306Z,85.8
2022-12-29T16:16:30.402Z,86.28
2022-12-29T16:17:30.171Z,86.85
2022-12-29T16:18:30.320Z,86.43
2022-12-29T16:19:30.517Z,86.05
2022-12-29T16:20:30.736Z,86.09
2022-12-29T16:21:30.357Z,85.33
2022-12-29T16:22:30.589Z,85.42
2022-12-29T16:23:30.349Z,85.24
2022-12-29T16:24:30.356Z,85.14
2022-12-29T16:25:30.442Z,84.62
2022-12-29T16:26:30.129Z,84.66
2022-12-29T16:27:30.385Z,85.04
2022-12-29T16:28:30.518Z,85.1
2022-12-29T16:29:30.453Z,84.81
2022-12-29T16:30:36.384Z,85.19
2022-12-29T16:31:30.556Z,84.62
2022-12-29T16:32:30.418Z,84.81
2022-12-29T16:33:30.429Z,84.33
2022-12-29T16:34:30.425Z,84.43
2022-12-29T16:35:30.210Z,84.81
2022-12-29T16:36:30.471Z,85
2022-12-29T16:37:30.472Z,84.62
2022-12-29T16:38:30.467Z,85.1
2022-12-29T16:39:30.504Z,85.1
2022-12-29T16:40:30.226Z,85.19
2022-12-29T16:41:30.521Z,84.43
2022-12-29T16:42:30.327Z,84.62
2022-12-29T16:43:30.563Z,84.43
2022-12-29T16:44:30.529Z,84.48
2022-12-29T16:45:30.752Z,84.24
2022-12-29T16:46:31.399Z,84.33
2022-12-29T16:47:30.662Z,84.14
2022-12-29T16:48:30.532Z,83.95
2022-12-29T16:49:30.662Z,83.95
2022-12-29T16:50:31.458Z,84.29
2022-12-29T16:51:30.649Z,84.62
2022-12-29T16:52:30.407Z,84.29
2022-12-29T16:53:30.673Z,84.48
2022-12-29T16:54:30.701Z,83.53
2022-12-29T16:55:30.325Z,83.06
2022-12-29T16:56:30.649Z,82.81
2022-12-29T16:57:31.090Z,82.49
2022-12-29T16:58:30.629Z,82.91
2022-12-29T16:59:30.714Z,83.25
2022-12-29T17:00:30.710Z,83.15
2022-12-29T17:01:30.913Z,83.34
2022-12-29T17:02:31.124Z,83.06
2022-12-29T17:03:30.758Z,83.44
2022-12-29T17:04:30.691Z,83.25
2022-12-29T17:05:30.447Z,83.06
2022-12-29T17:06:30.735Z,83.44
2022-12-29T17:07:30.758Z,83.82
2022-12-29T17:08:30.699Z,83.91
2022-12-29T17:09:30.714Z,83.72
2022-12-29T17:10:30.731Z,84.01
2022-12-29T17:11:30.709Z,84.86
2022-12-29T17:12:30.773Z,85.11
2022-12-29T17:13:30.816Z,84.82
2022-12-29T17:14:30.729Z,84.72
2022-12-29T17:15:30.889Z,85.39
2022-12-29T17:16:30.628Z,85.49
2022-12-29T17:17:30.604Z,86.05
2022-12-29T17:18:30.802Z,86.53
2022-12-29T17:19:30.556Z,86.34
2022-12-29T17:20:30.798Z,86.63
2022-12-29T17:21:30.922Z,86.72
2022-12-29T17:22:30.620Z,87.19
2022-12-29T17:23:30.830Z,86.91
2022-12-29T17:24:30.885Z,87.19
2022-12-29T17:25:31.041Z,87.1
2022-12-29T17:26:30.571Z,87.29
2022-12-29T17:27:30.827Z,87.57
2022-12-29T17:28:30.910Z,88.05
2022-12-29T17:29:30.914Z,88.15
2022-12-29T17:30:35.986Z,88.05
2022-12-29T17:31:31.059Z,87.67
2022-12-29T17:32:30.637Z,87.19
2022-12-29T17:33:30.923Z,87.38
2022-12-29T17:34:30.961Z,88.15
2022-12-29T17:35:30.654Z,87.76
2022-12-29T17:36:30.893Z,88.15
2022-12-29T17:37:31.108Z,87.76
2022-12-29T17:38:31.090Z,87.67
2022-12-29T17:39:30.943Z,88.05
2022-12-29T17:40:30.991Z,88.15
2022-12-29T17:41:31.545Z,88.53
2022-12-29T17:42:30.974Z,88.62
2022-12-29T17:43:39.334Z,88.71
2022-12-29T17:44:30.729Z,89.38
2022-12-29T17:45:31.030Z,89.09
2022-12-29T17:46:31.010Z,89.09
2022-12-29T17:47:31.002Z,88.86
2022-12-29T17:48:31.194Z,89.28
2022-12-29T17:49:31.367Z,89.28
2022-12-29T17:50:31.508Z,89.38
2022-12-29T17:51:30.984Z,89.14
2022-12-29T17:52:30.999Z,89.33
2022-12-29T17:53:31.021Z,89.38
2022-12-29T17:54:30.996Z,89.05
2022-12-29T17:55:38.684Z,89
2022-12-29T17:56:31.038Z,88.53
2022-12-29T17:57:31.087Z,88.81
2022-12-29T17:58:31.016Z,88.71
2022-12-29T17:59:31.054Z,89
2022-12-29T18:00:30.813Z,88.62
2022-12-29T18:01:41.041Z,88.62
2022-12-29T18:02:31.677Z,88.71
2022-12-29T18:03:31.591Z,88.81
2022-12-29T18:04:31.186Z,89.19
2022-12-29T18:05:31.100Z,88.9
2022-12-29T18:06:31.517Z,88.71
2022-12-29T18:07:37.996Z,88.62
2022-12-29T18:08:31.405Z,87.86
2022-12-29T18:09:31.225Z,88.15
2022-12-29T18:10:32.184Z,88.05
2022-12-29T18:11:30.878Z,87.95
2022-12-29T18:12:31.131Z,87.29
2022-12-29T18:13:46.538Z,87.57
2022-12-29T18:14:31.148Z,87.1
2022-12-29T18:15:31.206Z,87.29
2022-12-29T18:16:32.557Z,86.72
2022-12-29T18:17:31.249Z,87.1
2022-12-29T18:18:31.223Z,86.82
2022-12-29T18:19:37.912Z,87.38
2022-12-29T18:20:31.198Z,86.72
2022-12-29T18:21:31.215Z,87.1
2022-12-29T18:22:31.266Z,87.48
2022-12-29T18:23:31.271Z,87.29
2022-12-29T18:24:31.248Z,87.19
2022-12-29T18:25:31.851Z,87.48
2022-12-29T18:26:31.646Z,87.29
2022-12-29T18:27:31.352Z,87.1
2022-12-29T18:28:31.280Z,87.38
2022-12-29T18:29:31.377Z,88.15
2022-12-29T18:30:31.052Z,87.76
2022-12-29T18:31:31.436Z,87.95
2022-12-29T18:32:31.269Z,88.05
2022-12-29T18:33:31.265Z,87.48
2022-12-29T18:34:31.298Z,87.29
2022-12-29T18:35:31.482Z,87.34
2022-12-29T18:36:31.053Z,87.38
2022-12-29T18:37:31.033Z,88.34
2022-12-29T18:38:31.323Z,88.53
2022-12-29T18:39:32.444Z,88.53
2022-12-29T18:40:31.067Z,88.81
2022-12-29T18:41:32.079Z,88.62
2022-12-29T18:42:31.066Z,88.81
2022-12-29T18:43:31.356Z,88.81
2022-12-29T18:44:31.343Z,88.62
2022-12-29T18:45:31.394Z,88.24
2022-12-29T18:46:31.571Z,88.62
2022-12-29T18:47:31.429Z,89.19
2022-12-29T18:48:31.412Z,89.19
2022-12-29T18:49:31.415Z,88.71
2022-12-29T18:50:31.423Z,88.81
2022-12-29T18:51:31.429Z,88.9
2022-12-29T18:52:31.195Z,89.09
2022-12-29T18:53:31.597Z,89.09
2022-12-29T18:54:31.635Z,88.71
2022-12-29T18:55:31.659Z,88.9
2022-12-29T18:56:31.463Z,89.28
2022-12-29T18:57:31.287Z,89.76
2022-12-29T18:58:36.258Z,89.76
2022-12-29T18:59:31.531Z,89.57
2022-12-29T19:00:31.516Z,89.47
2022-12-29T19:01:31.718Z,89.47
2022-12-29T19:02:32.057Z,89.67
2022-12-29T19:03:31.889Z,90.14
2022-12-29T19:04:31.464Z,90.14
2022-12-29T19:05:31.660Z,90.23
2022-12-29T19:06:31.479Z,90.14
2022-12-29T19:07:31.573Z,89.86
2022-12-29T19:08:31.502Z,89.86
2022-12-29T19:09:31.507Z,90.14
2022-12-29T19:10:31.574Z,90.71
2022-12-29T19:11:32.904Z,90.9
2022-12-29T19:12:31.657Z,90.61
2022-12-29T19:13:32.053Z,90.71
2022-12-29T19:14:31.708Z,91.47
2022-12-29T19:15:31.290Z,91.56
2022-12-29T19:16:31.478Z,91.66
2022-12-29T19:17:31.663Z,91.42
2022-12-29T19:19:07.644Z,91.61
2022-12-29T19:19:31.581Z,91.28
2022-12-29T19:20:31.626Z,91.66
2022-12-29T19:21:31.628Z,91.94
2022-12-29T19:22:31.645Z,91.47
2022-12-29T19:23:31.900Z,91.66
2022-12-29T19:24:31.610Z,91.42
2022-12-29T19:25:32.057Z,91.24
2022-12-29T19:26:32.285Z,91.99
2022-12-29T19:27:31.641Z,91.52
2022-12-29T19:28:31.688Z,91.89
2022-12-29T19:29:31.638Z,91.8
2022-12-29T19:30:31.685Z,91.89
2022-12-29T19:31:31.872Z,92.37
2022-12-29T19:32:31.658Z,92.18
2022-12-29T19:33:31.711Z,92.37
2022-12-29T19:34:31.691Z,91.99
2022-12-29T19:35:31.425Z,92.66
2022-12-29T19:36:31.989Z,92.37
2022-12-29T19:37:31.774Z,92.37
2022-12-29T19:38:31.716Z,92.28
2022-12-29T19:39:31.516Z,92.28
2022-12-29T19:40:31.454Z,92.66
2022-12-29T19:41:31.754Z,92.37
2022-12-29T19:42:31.725Z,92.09
2022-12-29T19:43:31.775Z,92.23
2022-12-29T19:44:31.775Z,92.47
2022-12-29T19:45:31.754Z,92.42
2022-12-29T19:46:31.635Z,91.94
2022-12-29T19:47:34.488Z,91.85
2022-12-29T19:48:31.805Z,91.85
2022-12-29T19:49:31.861Z,91.94
2022-12-29T19:50:31.861Z,91.85
2022-12-29T19:51:31.882Z,91.56
2022-12-29T19:52:31.790Z,92.04
2022-12-29T19:53:31.784Z,91.56
2022-12-29T19:54:31.886Z,92.42
2022-12-29T19:55:31.876Z,92.13
2022-12-29T19:56:31.847Z,92.47
2022-12-29T19:57:32.450Z,92.9
2022-12-29T19:58:31.576Z,92.71
2022-12-29T19:59:31.850Z,92.75
2022-12-29T20:00:32.504Z,91.89
2022-12-29T20:01:32.168Z,92.61
2022-12-29T20:02:32.565Z,92.42
2022-12-29T20:03:31.870Z,92.85
2022-12-29T20:04:31.859Z,93.51
2022-12-29T20:05:31.894Z,93.32
2022-12-29T20:06:31.985Z,93.32
2022-12-29T20:07:31.961Z,93.41
2022-12-29T20:08:31.949Z,93.6
2022-12-29T20:09:31.745Z,93.13
2022-12-29T20:10:31.967Z,93.6
2022-12-29T20:11:31.923Z,93.23
2022-12-29T20:12:32.295Z,92.85
2022-12-29T20:13:31.956Z,93.04
2022-12-29T20:14:31.973Z,93.04
2022-12-29T20:15:31.930Z,93.51
2022-12-29T20:16:32.169Z,93.13
2022-12-29T20:18:14.667Z,94.08
2022-12-29T20:18:32.396Z,93.8
2022-12-29T20:19:32.499Z,94.08
2022-12-29T20:20:32.519Z,94.08
2022-12-29T20:21:32.641Z,94.37
2022-12-29T20:22:32.544Z,93.99
2022-12-29T20:23:32.767Z,93.99
2022-12-29T20:24:32.591Z,94.37
2022-12-29T20:25:49.406Z,94.74
2022-12-29T20:26:32.565Z,94.65
2022-12-29T20:27:32.608Z,94.56
2022-12-29T20:28:32.698Z,94.84
2022-12-29T20:29:32.775Z,94.74
2022-12-29T20:30:32.620Z,94.65
2022-12-29T20:31:32.702Z,93.89
2022-12-29T20:32:32.652Z,93.51
2022-12-29T20:33:32.363Z,93.23
2022-12-29T20:34:32.591Z,93.32
2022-12-29T20:35:32.595Z,93.51
2022-12-29T20:36:32.612Z,94.08
2022-12-29T20:37:32.756Z,94.37
2022-12-29T20:38:33.229Z,94.37
2022-12-29T20:39:32.623Z,94.08
2022-12-29T20:40:32.445Z,94.18
2022-12-29T20:41:32.673Z,94.18
2022-12-29T20:42:32.685Z,93.99
2022-12-29T20:43:32.660Z,94.37
2022-12-29T20:44:32.684Z,94.27
2022-12-29T20:45:32.726Z,94.18
2022-12-29T20:46:43.425Z,94.84
2022-12-29T20:47:32.427Z,94.56
2022-12-29T20:48:32.688Z,94.65
2022-12-29T20:49:32.852Z,94.93
2022-12-29T20:50:32.715Z,94.08
2022-12-29T20:52:07.266Z,94.46
2022-12-29T20:52:32.821Z,94.65
2022-12-29T20:53:32.762Z,94.65
2022-12-29T20:54:39.674Z,94.65
2022-12-29T20:55:32.627Z,94.84
2022-12-29T20:56:33.409Z,94.46
2022-12-29T20:59:30.795Z,94.37
2022-12-29T21:00:28.149Z,94.46
2022-12-29T21:01:28.210Z,94.74
2022-12-29T21:02:28.328Z,94.27
2022-12-29T21:03:28.202Z,93.89
2022-12-29T21:04:27.606Z,93.99
2022-12-29T21:05:29.778Z,94.18
2022-12-29T21:06:29.391Z,94.27
2022-12-29T21:07:29.423Z,94.18
2022-12-29T21:08:29.601Z,93.8
2022-12-29T21:09:29.569Z,94.08
2022-12-29T21:10:30.069Z,93.89
2022-12-29T21:11:30.020Z,93.51
2022-12-29T21:12:29.150Z,93.41
2022-12-29T21:13:29.417Z,93.6
2022-12-29T21:14:29.417Z,93.23
2022-12-29T21:15:29.205Z,93.04
2022-12-29T21:16:29.601Z,92.85
2022-12-29T21:17:29.187Z,92.47
2022-12-29T21:18:29.464Z,92.18
2022-12-29T21:19:29.489Z,91.8
2022-12-29T21:20:29.261Z,91.71
2022-12-29T21:21:29.261Z,91.8
2022-12-29T21:22:29.497Z,91.61
2022-12-29T21:23:29.267Z,91.42
2022-12-29T21:24:29.527Z,91.52
2022-12-29T21:25:29.554Z,91.04
2022-12-29T21:26:29.701Z,91.42
2022-12-29T21:27:30.526Z,91.8
2022-12-29T21:28:29.751Z,91.42
2022-12-29T21:29:29.391Z,92.37
2022-12-29T21:30:29.343Z,92.18
2022-12-29T21:31:29.808Z,92.09
2022-12-29T21:32:29.735Z,92.09
2022-12-29T21:33:29.604Z,92.09
2022-12-29T21:34:29.569Z,92.47
2022-12-29T21:35:29.582Z,91.8
2022-12-29T21:36:29.584Z,91.8
2022-12-29T21:37:29.589Z,91.42
2022-12-29T21:38:29.635Z,91.33
2022-12-29T21:39:30.259Z,91.24
2022-12-29T21:40:29.592Z,90.57
2022-12-29T21:41:30.785Z,90.57
2022-12-29T21:42:29.780Z,90.23
2022-12-29T21:43:29.348Z,90.14
2022-12-29T21:44:29.367Z,89.53
2022-12-29T21:45:29.673Z,89.28
2022-12-29T21:46:29.795Z,89.67
2022-12-29T21:47:30.428Z,89.47
2022-12-29T21:48:29.379Z,88.71
2022-12-29T21:49:29.681Z,89
2022-12-29T21:50:29.554Z,88.81
2022-12-29T21:51:33.277Z,89
2022-12-29T21:52:29.666Z,88.9
2022-12-29T21:53:29.807Z,89
2022-12-29T21:54:29.825Z,89
2022-12-29T21:55:29.668Z,89.28
2022-12-29T21:56:29.694Z,89.47
2022-12-29T21:57:29.733Z,89.47
2022-12-29T21:58:29.741Z,89.33
2022-12-29T21:59:29.454Z,89.72
2022-12-29T22:00:29.704Z,89.43
2022-12-29T22:01:30.221Z,89.81
2022-12-29T22:02:30.132Z,89.33
2022-12-29T22:03:30.399Z,89.43
2022-12-29T22:04:29.769Z,89.43
2022-12-29T22:05:29.752Z,89.24
2022-12-29T22:06:30.364Z,89.72
2022-12-29T22:07:29.807Z,89.72
2022-12-29T22:08:29.768Z,89.43
2022-12-29T22:09:29.874Z,89.33
2022-12-29T22:10:29.727Z,89.33
2022-12-29T22:11:29.777Z,89.43
2022-12-29T22:12:29.842Z,89.72
2022-12-29T22:13:29.850Z,89.62
2022-12-29T22:14:29.559Z,88.86
2022-12-29T22:15:29.903Z,89.43
2022-12-29T22:16:30.788Z,89.33
2022-12-29T22:17:35.150Z,89.53
2022-12-29T22:18:29.887Z,89.14
2022-12-29T22:19:29.833Z,89.33
2022-12-29T22:20:29.826Z,89.62
2022-12-29T22:21:29.574Z,89.43
2022-12-29T22:22:29.882Z,89.53
2022-12-29T22:23:29.861Z,89.53
2022-12-29T22:24:29.909Z,89.81
2022-12-29T22:25:29.949Z,90.09
2022-12-29T22:26:30.189Z,90.85
2022-12-29T22:27:29.922Z,90.66
2022-12-29T22:28:30.121Z,90.76
2022-12-29T22:29:30.020Z,90.85
2022-12-29T22:30:30.440Z,90.28
2022-12-29T22:31:30.748Z,90.66
2022-12-29T22:32:29.929Z,90.57
2022-12-29T22:33:29.734Z,90.57
2022-12-29T22:34:29.969Z,90.38
2022-12-29T22:35:29.919Z,90.85
2022-12-29T22:36:29.929Z,90.76
2022-12-29T22:37:30.023Z,90.85
2022-12-29T22:38:29.957Z,91.04
2022-12-29T22:39:30.010Z,90.38
2022-12-29T22:40:30.563Z,90.66
2022-12-29T22:41:30.010Z,90.38
2022-12-29T22:42:29.972Z,90.47
2022-12-29T22:43:30.068Z,90.38
2022-12-29T22:44:30.162Z,90.38
2022-12-29T22:45:30.026Z,90.47
2022-12-29T22:46:30.190Z,90.95
2022-12-29T22:47:29.768Z,91.19
2022-12-29T22:48:30.031Z,91.19
2022-12-29T22:49:30.071Z,91.19
2022-12-29T22:50:30.031Z,91.66
2022-12-29T22:51:30.056Z,91.56
2022-12-29T22:52:30.035Z,91.66
2022-12-29T22:53:29.794Z,92.33
2022-12-29T22:54:29.784Z,92.42
2022-12-29T22:55:30.048Z,92.8
2022-12-29T22:56:30.288Z,93.27
2022-12-29T22:57:29.943Z,93.18
2022-12-29T22:58:30.413Z,93.75
2022-12-29T22:59:30.209Z,93.65
2022-12-29T23:00:29.843Z,93.75
2022-12-29T23:01:30.514Z,93.75
2022-12-29T23:02:30.692Z,93.27
2022-12-29T23:03:30.237Z,93.75
2022-12-29T23:05:03.336Z,93.08
2022-12-29T23:05:30.113Z,92.99
2022-12-29T23:06:29.882Z,93.37
2022-12-29T23:07:29.898Z,93.84
2022-12-29T23:08:30.165Z,93.84
2022-12-29T23:09:30.133Z,94.32
2022-12-29T23:10:30.344Z,93.94
2022-12-29T23:11:30.596Z,93.75
2022-12-29T23:12:29.887Z,93.75
2022-12-29T23:13:31.586Z,93.84
2022-12-29T23:14:30.206Z,93.94
2022-12-29T23:15:31.492Z,93.65
2022-12-29T23:16:29.976Z,93.18
2022-12-29T23:17:30.545Z,93.56
2022-12-29T23:18:30.215Z,92.99
2022-12-29T23:19:30.042Z,92.42
2022-12-29T23:20:30.200Z,92.9
2022-12-29T23:21:30.256Z,92.8
2022-12-29T23:22:30.008Z,92.61
2022-12-29T23:23:30.399Z,92.99
2022-12-29T23:24:30.815Z,93.08
2022-12-29T23:25:31.597Z,92.8
2022-12-29T23:26:30.433Z,92.99
2022-12-29T23:27:31.354Z,93.18
2022-12-29T23:28:30.292Z,92.9
2022-12-29T23:29:30.484Z,92.71
2022-12-29T23:30:30.009Z,92.61
2022-12-29T23:31:30.564Z,92.23
2022-12-29T23:32:30.273Z,92.33
2022-12-29T23:33:30.537Z,92.42
2022-12-29T23:34:30.659Z,92.61
2022-12-29T23:35:30.474Z,92.33
2022-12-29T23:36:30.369Z,92.14
2022-12-29T23:37:30.045Z,92.04
2022-12-29T23:38:30.568Z,92.04
2022-12-29T23:39:30.299Z,91.85
2022-12-29T23:40:30.426Z,91.47
2022-12-29T23:41:30.362Z,91.66
2022-12-29T23:42:30.968Z,91.66
2022-12-29T23:43:30.360Z,91.38
2022-12-29T23:44:30.419Z,91.09
2022-12-29T23:45:30.382Z,90.71
2022-12-29T23:46:30.502Z,90.66
2022-12-29T23:47:30.758Z,90.38
2022-12-29T23:48:30.589Z,90.38
2022-12-29T23:49:30.378Z,89.9
2022-12-29T23:50:30.390Z,89.53
2022-12-29T23:51:30.378Z,89.81
2022-12-29T23:52:30.579Z,89.24
2022-12-29T23:53:30.755Z,89.24
2022-12-29T23:54:30.239Z,89.24
2022-12-29T23:55:30.128Z,88.86
2022-12-29T23:56:30.384Z,88.76
2022-12-29T23:57:30.485Z,88.57
2022-12-29T23:58:30.757Z,88.86
2022-12-29T23:59:30.418Z,89.14
